Roatan, Honduras
Current Conditions -  °F | °C
As of 8:00 AM on Tuesday 27 Jan 2015 (Local Time) from MHLC Reporting Station
Rain Showers Rain Showers  
Wind Chill: 68°   Ceiling: 7000
Heat Index: 68°   Visibility: 3mi
Dew Point: 66°   Wind: 8mph
Humidity: 94%   Direction: 190°S
Pressure: 30.15"   Gusts: NA
Location:  16.33°N, 86.52°W
Report Text: MHLC 271400Z 19007KT 5000 VCSH SCT022 OVC070 20/19 Q1021 A3015RERA NOSIG
Loading
Personal Weather Stations






























Interactive Weather Map New forecast layout! Learn more

10-Day Weather Forecast

Advertisements
Track Severe Weather on mobile